createdAt,value
2022-10-23T00:00:43.763Z,8.33
2022-10-23T00:03:10.500Z,7.57
2022-10-23T00:05:40.366Z,7.70
2022-10-23T00:08:06.958Z,7.50
2022-10-23T00:10:33.824Z,7.63
2022-10-23T00:13:00.276Z,8.10
2022-10-23T00:15:27.529Z,7.53
2022-10-23T00:17:54.233Z,8.10
2022-10-23T00:20:21.793Z,6.80
2022-10-23T00:22:48.240Z,6.10
2022-10-23T00:25:16.325Z,6.77
2022-10-23T00:27:43.401Z,7.37
2022-10-23T00:30:10.892Z,6.83
2022-10-23T00:32:37.457Z,5.83
2022-10-23T00:35:05.127Z,5.30
2022-10-23T00:37:31.617Z,6.30
2022-10-23T00:39:58.048Z,6.33
2022-10-23T00:42:24.833Z,5.77
2022-10-23T00:44:51.263Z,5.73
2022-10-23T00:47:18.087Z,6.80
2022-10-23T00:49:44.548Z,6.00
2022-10-23T00:52:12.951Z,5.87
2022-10-23T00:54:41.163Z,7.37
2022-10-23T00:57:11.991Z,6.03
2022-10-23T00:59:38.613Z,5.37
2022-10-23T01:02:05.244Z,5.43
2022-10-23T01:04:32.651Z,5.53
2022-10-23T01:07:19.659Z,5.87
2022-10-23T01:09:56.340Z,5.17
2022-10-23T01:12:33.103Z,5.50
2022-10-23T01:15:47.361Z,5.40
2022-10-23T01:18:22.951Z,6.10
2022-10-23T01:21:04.667Z,5.40
2022-10-23T01:23:40.182Z,5.83
2022-10-23T01:26:25.151Z,5.17
2022-10-23T01:29:07.419Z,5.33
2022-10-23T01:31:38.322Z,5.33
2022-10-23T01:34:18.879Z,5.90
2022-10-23T01:36:48.671Z,5.30
2022-10-23T01:39:19.750Z,5.77
2022-10-23T01:41:58.552Z,5.43
2022-10-23T01:44:26.938Z,5.90
2022-10-23T01:46:53.883Z,5.03
2022-10-23T01:49:21.534Z,6.23
2022-10-23T01:51:51.245Z,4.93
2022-10-23T01:54:19.637Z,4.60
2022-10-23T01:56:48.709Z,6.50
2022-10-23T01:59:19.697Z,5.20
2022-10-23T02:01:48.095Z,5.43
2022-10-23T02:04:21.499Z,4.80
2022-10-23T02:06:48.001Z,5.60
2022-10-23T02:09:14.495Z,5.70
2022-10-23T02:11:51.212Z,5.80
2022-10-23T02:14:26.903Z,5.17
2022-10-23T02:16:55.097Z,6.20
2022-10-23T02:19:43.720Z,5.97
2022-10-23T02:22:34.930Z,5.50
2022-10-23T02:25:12.145Z,5.93
2022-10-23T02:27:48.282Z,6.20
2022-10-23T02:30:16.993Z,5.97
2022-10-23T02:32:49.324Z,6.83
2022-10-23T02:35:17.534Z,6.63
2022-10-23T02:37:44.378Z,5.67
2022-10-23T02:40:11.561Z,5.87
2022-10-23T02:43:09.267Z,5.77
2022-10-23T02:46:01.958Z,5.50
2022-10-23T02:48:33.999Z,5.93
2022-10-23T02:51:07.240Z,5.63
2022-10-23T02:53:38.918Z,6.47
2022-10-23T02:56:29.041Z,5.30
2022-10-23T02:59:20.515Z,5.80
2022-10-23T03:01:57.593Z,5.30
2022-10-23T03:04:24.547Z,5.47
2022-10-23T03:06:51.596Z,5.17
2022-10-23T03:09:18.577Z,4.60
2022-10-23T03:11:45.056Z,5.53
2022-10-23T03:14:12.942Z,5.93
2022-10-23T03:16:39.446Z,6.07
2022-10-23T03:19:05.960Z,6.80
2022-10-23T03:21:32.459Z,6.03
2022-10-23T03:23:58.861Z,6.37
2022-10-23T03:26:25.349Z,5.57
2022-10-23T03:28:51.774Z,6.53
2022-10-23T03:31:18.202Z,6.27
2022-10-23T03:33:44.748Z,6.00
2022-10-23T03:36:11.281Z,6.50
2022-10-23T03:38:37.754Z,5.10
2022-10-23T03:41:04.354Z,5.50
2022-10-23T03:43:30.806Z,5.20
2022-10-23T03:45:57.526Z,6.03
2022-10-23T03:48:24.915Z,5.47
2022-10-23T03:50:51.652Z,5.70
2022-10-23T03:53:18.386Z,5.20
2022-10-23T03:55:45.010Z,5.67
2022-10-23T03:58:11.471Z,5.90
2022-10-23T04:00:37.960Z,5.83
2022-10-23T04:03:04.427Z,4.90
2022-10-23T04:05:30.868Z,5.13
2022-10-23T04:07:57.353Z,5.70
2022-10-23T04:10:23.817Z,5.00
2022-10-23T04:12:50.348Z,4.73
2022-10-23T04:15:16.855Z,6.10
2022-10-23T04:17:43.307Z,5.23
2022-10-23T04:20:09.918Z,6.10
2022-10-23T04:22:36.330Z,5.43
2022-10-23T04:25:02.841Z,5.67
2022-10-23T04:27:29.481Z,5.60
2022-10-23T04:29:58.360Z,4.37
2022-10-23T04:32:25.984Z,5.20
2022-10-23T04:34:52.447Z,5.07
2022-10-23T04:37:18.953Z,5.00
2022-10-23T04:39:45.434Z,4.53
2022-10-23T04:42:11.861Z,4.63
2022-10-23T04:44:38.301Z,4.70
2022-10-23T04:47:04.834Z,5.73
2022-10-23T04:49:31.272Z,5.50
2022-10-23T04:51:57.728Z,5.30
2022-10-23T04:54:24.453Z,5.97
2022-10-23T04:56:51.093Z,5.23
2022-10-23T04:59:17.605Z,4.20
2022-10-23T05:01:44.084Z,5.73
2022-10-23T05:04:10.702Z,4.23
2022-10-23T05:06:37.218Z,5.10
2022-10-23T05:09:03.823Z,5.10
2022-10-23T05:11:30.256Z,4.50
2022-10-23T05:13:56.708Z,5.13
2022-10-23T05:16:40.037Z,5.03
2022-10-23T05:19:07.948Z,5.50
2022-10-23T05:21:36.090Z,5.40
2022-10-23T05:24:02.702Z,5.17
2022-10-23T05:26:30.974Z,5.27
2022-10-23T05:28:57.432Z,4.43
2022-10-23T05:31:24.603Z,5.43
2022-10-23T05:33:52.948Z,4.63
2022-10-23T05:36:19.452Z,4.43
2022-10-23T05:38:46.073Z,4.30
2022-10-23T05:41:12.668Z,4.67
2022-10-23T05:43:39.118Z,5.20
2022-10-23T05:46:06.218Z,5.10
2022-10-23T05:48:34.993Z,4.90
2022-10-23T05:51:06.562Z,4.93
2022-10-23T05:53:33.058Z,4.77
2022-10-23T05:56:09.274Z,4.70
2022-10-23T05:58:35.965Z,4.70
2022-10-23T06:01:07.501Z,5.40
2022-10-23T06:03:34.685Z,5.10
2022-10-23T06:06:01.218Z,4.17
2022-10-23T06:08:27.750Z,5.63
2022-10-23T06:10:54.267Z,6.10
2022-10-23T06:13:20.755Z,5.73
2022-10-23T06:15:47.255Z,5.17
2022-10-23T06:18:13.783Z,4.37
2022-10-23T06:20:40.372Z,5.60
2022-10-23T06:23:07.251Z,5.57
2022-10-23T06:25:33.749Z,5.63
2022-10-23T06:28:00.244Z,4.90
2022-10-23T06:30:26.736Z,4.37
2022-10-23T06:32:53.972Z,5.50
2022-10-23T06:35:20.382Z,5.00
2022-10-23T06:37:47.046Z,5.10
2022-10-23T06:40:13.462Z,4.77
2022-10-23T06:42:40.069Z,4.47
2022-10-23T06:45:07.408Z,5.30
2022-10-23T06:47:34.090Z,5.30
2022-10-23T06:50:00.534Z,4.90
2022-10-23T06:52:47.871Z,5.47
2022-10-23T06:55:14.826Z,4.50
2022-10-23T06:57:41.860Z,5.10
2022-10-23T07:00:09.592Z,5.30
2022-10-23T07:02:36.764Z,5.90
2022-10-23T07:05:03.778Z,6.13
2022-10-23T07:07:30.820Z,6.23
2022-10-23T07:09:57.424Z,6.80
2022-10-23T07:12:23.998Z,5.03
2022-10-23T07:14:50.793Z,5.80
2022-10-23T07:17:17.334Z,6.23
2022-10-23T07:19:43.774Z,6.27
2022-10-23T07:22:13.283Z,4.90
2022-10-23T07:24:42.235Z,4.40
2022-10-23T07:27:08.682Z,5.43
2022-10-23T07:29:35.274Z,4.90
2022-10-23T07:32:01.845Z,4.70
2022-10-23T07:34:38.224Z,4.67
2022-10-23T07:37:04.646Z,4.10
2022-10-23T07:39:31.136Z,4.30
2022-10-23T07:41:57.567Z,3.83
2022-10-23T07:44:26.976Z,3.70
2022-10-23T07:46:54.294Z,4.20
2022-10-23T07:49:20.795Z,3.93
2022-10-23T07:51:50.511Z,3.60
2022-10-23T07:54:18.199Z,3.80
2022-10-23T07:56:44.693Z,4.50
2022-10-23T07:59:14.169Z,3.50
2022-10-23T08:01:43.663Z,3.57
2022-10-23T08:04:10.799Z,4.57
2022-10-23T08:06:38.225Z,3.70
2022-10-23T08:09:06.556Z,3.77
2022-10-23T08:11:35.547Z,4.57
2022-10-23T08:14:06.628Z,4.80
2022-10-23T08:16:34.519Z,5.20
2022-10-23T08:19:01.375Z,5.90
2022-10-23T08:21:28.051Z,5.03
2022-10-23T08:23:58.224Z,5.30
2022-10-23T08:26:25.730Z,8.33
2022-10-23T08:28:52.830Z,7.03
2022-10-23T08:31:20.806Z,6.83
2022-10-23T08:36:20.232Z,6.20
2022-10-23T08:38:46.755Z,5.67
2022-10-23T08:41:29.547Z,4.57
2022-10-23T08:44:22.375Z,5.23
2022-10-23T08:47:00.783Z,5.00
2022-10-23T08:49:33.313Z,5.20
2022-10-23T08:52:03.171Z,5.73
2022-10-23T08:54:43.423Z,4.60
2022-10-23T08:57:13.650Z,4.57
2022-10-23T08:59:48.602Z,4.00
2022-10-23T09:02:18.291Z,4.50
2022-10-23T09:04:46.775Z,3.90
2022-10-23T09:07:34.043Z,4.20
2022-10-23T09:10:25.600Z,4.03
2022-10-23T09:12:52.092Z,4.50
2022-10-23T09:15:25.099Z,4.77
2022-10-23T09:17:58.721Z,4.60
2022-10-23T09:20:26.885Z,3.10
2022-10-23T09:22:57.327Z,3.33
2022-10-23T09:25:26.842Z,2.27
2022-10-23T09:27:57.329Z,2.07
2022-10-23T09:30:36.609Z,2.30
2022-10-23T09:33:19.717Z,1.80
2022-10-23T09:36:00.046Z,1.50
2022-10-23T09:38:31.947Z,1.93
2022-10-23T09:41:21.666Z,1.90
2022-10-23T09:44:01.738Z,2.63
2022-10-23T09:46:45.200Z,1.80
2022-10-23T09:49:20.709Z,1.87
2022-10-23T09:51:54.326Z,2.07
2022-10-23T09:54:23.846Z,2.13
2022-10-23T09:56:50.786Z,2.30
2022-10-23T09:59:28.926Z,2.20
2022-10-23T10:01:58.771Z,2.53
2022-10-23T10:04:40.192Z,1.90
2022-10-23T10:07:20.980Z,2.50
2022-10-23T10:09:47.837Z,2.07
2022-10-23T10:12:17.278Z,1.90
2022-10-23T10:15:01.708Z,1.67
2022-10-23T10:17:39.865Z,2.73
2022-10-23T10:20:27.703Z,2.20
2022-10-23T10:23:06.461Z,2.03
2022-10-23T10:25:39.390Z,2.30
2022-10-23T10:28:27.170Z,2.00
2022-10-23T10:31:01.317Z,2.03
2022-10-23T10:33:45.893Z,1.80
2022-10-23T10:36:30.608Z,1.50
2022-10-23T10:39:00.344Z,1.73
2022-10-23T10:42:00.892Z,1.53
2022-10-23T10:44:49.065Z,1.60
2022-10-23T10:47:22.719Z,2.50
2022-10-23T10:49:55.473Z,1.60
2022-10-23T10:52:28.314Z,1.80
2022-10-23T10:55:05.933Z,3.50
2022-10-23T10:57:34.850Z,4.90
2022-10-23T11:00:06.505Z,2.80
2022-10-23T11:02:42.433Z,2.03
2022-10-23T11:05:44.296Z,1.57
2022-10-23T11:08:18.147Z,1.60
2022-10-23T11:10:46.717Z,1.80
2022-10-23T11:13:25.288Z,1.60
2022-10-23T11:15:54.778Z,1.70
2022-10-23T11:18:27.197Z,1.47
2022-10-23T11:21:15.346Z,1.70
2022-10-23T11:24:03.136Z,2.03
2022-10-23T11:27:04.036Z,1.63
2022-10-23T11:29:40.800Z,1.80
2022-10-23T11:32:38.150Z,1.67
2022-10-23T11:35:04.541Z,1.93
2022-10-23T11:37:31.076Z,1.87
2022-10-23T11:40:02.771Z,1.57
2022-10-23T11:42:41.598Z,1.73
2022-10-23T11:45:27.087Z,1.70
2022-10-23T11:48:24.069Z,1.97
2022-10-23T11:50:54.927Z,2.10
2022-10-23T11:53:38.236Z,1.83
2022-10-23T11:56:14.544Z,2.20
2022-10-23T11:58:46.740Z,1.30
2022-10-23T12:01:25.381Z,1.80
2022-10-23T12:04:12.359Z,1.77
2022-10-23T12:06:42.120Z,1.57
2022-10-23T12:09:26.966Z,1.60
2022-10-23T12:12:08.852Z,1.63
2022-10-23T12:14:39.521Z,1.73
2022-10-23T12:17:24.317Z,1.90
2022-10-23T12:20:02.429Z,1.30
2022-10-23T12:22:39.643Z,1.47
2022-10-23T12:25:13.777Z,1.70
2022-10-23T12:27:48.970Z,1.67
2022-10-23T12:30:24.241Z,1.73
2022-10-23T12:33:13.944Z,1.67
2022-10-23T12:36:00.803Z,1.53
2022-10-23T12:38:32.583Z,2.17
2022-10-23T12:41:19.356Z,1.57
2022-10-23T12:43:55.552Z,1.70
2022-10-23T12:46:37.447Z,2.00
2022-10-23T12:49:11.595Z,1.47
2022-10-23T12:51:38.107Z,1.93
2022-10-23T12:54:23.451Z,2.50
2022-10-23T12:56:50.409Z,1.83
2022-10-23T12:59:21.305Z,2.20
2022-10-23T13:01:52.573Z,2.07
2022-10-23T13:04:28.364Z,1.70
2022-10-23T13:06:56.784Z,1.80
2022-10-23T13:09:24.619Z,1.93
2022-10-23T13:11:52.429Z,3.90
2022-10-23T13:14:38.218Z,2.50
2022-10-23T13:17:10.058Z,1.63
2022-10-23T13:19:36.874Z,2.33
2022-10-23T13:22:05.494Z,2.33
2022-10-23T13:24:31.958Z,2.20
2022-10-23T13:26:58.922Z,2.00
2022-10-23T13:29:28.952Z,1.90
2022-10-23T13:31:55.822Z,2.43
2022-10-23T13:34:30.276Z,7.73
2022-10-23T13:37:23.029Z,2.33
2022-10-23T13:40:00.588Z,1.97
2022-10-23T13:42:27.209Z,2.40
2022-10-23T13:44:53.720Z,2.30
2022-10-23T13:47:20.534Z,2.43
2022-10-23T13:49:47.050Z,2.10
2022-10-23T13:52:15.145Z,2.30
2022-10-23T13:54:43.437Z,2.33
2022-10-23T13:57:13.581Z,2.10
2022-10-23T13:59:40.050Z,2.20
2022-10-23T14:02:19.071Z,2.60
2022-10-23T14:04:47.127Z,2.90
2022-10-23T14:07:13.559Z,2.60
2022-10-23T14:09:40.001Z,2.43
2022-10-23T14:12:06.651Z,2.50
2022-10-23T14:14:33.757Z,3.40
2022-10-23T14:17:00.307Z,2.27
2022-10-23T14:19:26.884Z,2.60
2022-10-23T14:21:53.330Z,2.47
2022-10-23T14:24:19.859Z,2.40
2022-10-23T14:26:46.376Z,2.50
2022-10-23T14:29:21.359Z,2.47
2022-10-23T14:31:49.709Z,2.70
2022-10-23T14:34:16.748Z,2.17
2022-10-23T14:36:50.184Z,2.53
2022-10-23T14:39:18.102Z,2.63
2022-10-23T14:41:44.562Z,2.47
2022-10-23T14:44:11.018Z,2.20
2022-10-23T14:46:38.386Z,2.20
2022-10-23T14:49:05.643Z,3.07
2022-10-23T14:51:32.289Z,2.40
2022-10-23T14:54:01.731Z,1.70
2022-10-23T14:56:33.331Z,3.10
2022-10-23T14:59:03.048Z,2.10
2022-10-23T15:01:36.456Z,2.10
2022-10-23T15:04:03.380Z,1.97
2022-10-23T15:06:30.181Z,2.40
2022-10-23T15:08:56.835Z,1.80
2022-10-23T15:11:24.510Z,2.37
2022-10-23T15:13:51.342Z,2.43
2022-10-23T15:16:17.934Z,1.90
2022-10-23T15:18:44.382Z,2.03
2022-10-23T15:21:12.449Z,1.40
2022-10-23T15:23:40.772Z,2.00
2022-10-23T15:26:13.974Z,2.13
2022-10-23T15:28:40.479Z,2.00
2022-10-23T15:31:06.959Z,2.30
2022-10-23T15:33:33.439Z,2.67
2022-10-23T15:35:59.875Z,2.10
2022-10-23T15:38:26.403Z,5.10
2022-10-23T15:40:54.439Z,1.80
2022-10-23T15:43:21.097Z,2.40
2022-10-23T15:45:47.577Z,2.10
2022-10-23T15:48:14.173Z,2.30
2022-10-23T15:50:40.702Z,2.40
2022-10-23T15:53:07.131Z,2.67
2022-10-23T15:55:33.637Z,2.53
2022-10-23T15:58:49.750Z,2.60
2022-10-23T16:01:16.430Z,2.87
2022-10-23T16:03:43.054Z,2.77
2022-10-23T16:06:11.528Z,3.73
2022-10-23T16:08:38.744Z,2.77
2022-10-23T16:11:13.786Z,2.97
2022-10-23T16:13:40.329Z,2.87
2022-10-23T16:16:07.282Z,2.93
2022-10-23T16:18:33.721Z,2.60
2022-10-23T16:21:00.164Z,2.50
2022-10-23T16:23:28.307Z,2.50
2022-10-23T16:25:55.150Z,2.60
2022-10-23T16:28:21.661Z,2.63
2022-10-23T16:30:48.092Z,3.37
2022-10-23T16:33:14.556Z,4.77
2022-10-23T16:35:41.063Z,3.20
2022-10-23T16:38:07.583Z,3.10
2022-10-23T16:40:34.009Z,3.70
2022-10-23T16:43:00.448Z,2.70
2022-10-23T16:45:26.970Z,3.03
2022-10-23T16:47:53.765Z,2.83
2022-10-23T16:50:21.842Z,3.10
2022-10-23T16:52:49.947Z,3.70
2022-10-23T16:55:18.747Z,3.00
2022-10-23T16:57:45.211Z,3.83
2022-10-23T17:00:12.046Z,2.57
2022-10-23T17:02:38.971Z,2.90
2022-10-23T17:05:05.922Z,2.60
2022-10-23T17:07:32.448Z,3.43
2022-10-23T17:09:58.970Z,3.20
2022-10-23T17:12:25.410Z,3.77
2022-10-23T17:14:52.007Z,3.43
2022-10-23T17:17:18.600Z,3.10
2022-10-23T17:19:46.520Z,3.23
2022-10-23T17:22:14.062Z,3.03
2022-10-23T17:24:41.600Z,3.33
2022-10-23T17:27:08.305Z,4.10
2022-10-23T17:29:35.157Z,4.33
2022-10-23T17:32:01.834Z,4.00
2022-10-23T17:34:28.326Z,3.50
2022-10-23T17:36:55.779Z,4.50
2022-10-23T17:39:28.984Z,4.50
2022-10-23T17:41:58.031Z,4.37
2022-10-23T17:44:24.515Z,4.67
2022-10-23T17:46:53.565Z,4.60
2022-10-23T17:49:21.023Z,4.47
2022-10-23T17:51:51.602Z,4.70
2022-10-23T17:54:18.142Z,4.13
2022-10-23T17:56:44.792Z,4.20
2022-10-23T17:59:16.311Z,4.50
2022-10-23T18:01:43.961Z,4.40
2022-10-23T18:04:10.615Z,4.33
2022-10-23T18:06:45.725Z,4.73
2022-10-23T18:09:12.781Z,4.67
2022-10-23T18:11:45.267Z,5.43
2022-10-23T18:14:14.004Z,5.20
2022-10-23T18:16:40.756Z,5.77
2022-10-23T18:19:07.851Z,5.13
2022-10-23T18:21:35.771Z,4.40
2022-10-23T18:24:02.897Z,4.07
2022-10-23T18:26:32.143Z,3.90
2022-10-23T18:28:59.491Z,3.27
2022-10-23T18:31:29.610Z,5.60
2022-10-23T18:34:03.151Z,4.10
2022-10-23T18:36:32.702Z,5.00
2022-10-23T18:38:59.580Z,5.07
2022-10-23T18:41:26.220Z,4.70
2022-10-23T18:43:53.783Z,4.83
2022-10-23T18:46:20.467Z,4.90
2022-10-23T18:48:47.981Z,5.83
2022-10-23T18:51:22.930Z,6.10
2022-10-23T18:53:49.622Z,5.00
2022-10-23T18:56:21.960Z,5.30
2022-10-23T18:58:53.354Z,5.77
2022-10-23T19:01:20.908Z,5.40
2022-10-23T19:03:47.815Z,5.83
2022-10-23T19:06:14.880Z,6.20
2022-10-23T19:08:42.848Z,4.53
2022-10-23T19:11:10.609Z,4.33
2022-10-23T19:13:39.137Z,4.03
2022-10-23T19:16:19.022Z,5.03
2022-10-23T19:18:48.377Z,4.60
2022-10-23T19:21:16.955Z,4.53
2022-10-23T19:23:43.876Z,4.47
2022-10-23T19:26:12.992Z,5.07
2022-10-23T19:28:42.392Z,5.40
2022-10-23T19:31:12.840Z,5.07
2022-10-23T19:33:39.593Z,5.53
2022-10-23T19:36:11.218Z,6.60
2022-10-23T19:38:43.267Z,5.70
2022-10-23T19:41:09.940Z,5.10
2022-10-23T19:43:37.748Z,6.40
2022-10-23T19:46:09.269Z,6.30
2022-10-23T19:48:42.273Z,6.13
2022-10-23T19:51:09.453Z,6.00
2022-10-23T19:53:36.318Z,5.23
2022-10-23T19:56:04.782Z,4.40
2022-10-23T19:58:31.264Z,3.00
2022-10-23T20:00:57.792Z,2.87
2022-10-23T20:03:24.372Z,2.60
2022-10-23T20:05:50.864Z,2.23
2022-10-23T20:08:18.007Z,2.30
2022-10-23T20:10:46.492Z,3.13
2022-10-23T20:13:19.852Z,1.70
2022-10-23T20:15:47.068Z,1.60
2022-10-23T20:18:13.620Z,1.73
2022-10-23T20:20:41.595Z,1.63
2022-10-23T20:23:08.322Z,1.63
2022-10-23T20:25:34.879Z,2.17
2022-10-23T20:28:01.359Z,1.87
2022-10-23T20:30:28.069Z,1.20
2022-10-23T20:32:54.528Z,1.50
2022-10-23T20:35:21.109Z,1.47
2022-10-23T20:37:47.585Z,1.67
2022-10-23T20:40:14.262Z,1.90
2022-10-23T20:42:40.947Z,1.53
2022-10-23T20:45:07.908Z,1.47
2022-10-23T20:47:34.380Z,1.10
2022-10-23T20:50:00.816Z,1.50
2022-10-23T20:52:30.138Z,1.63
2022-10-23T20:54:56.728Z,1.23
2022-10-23T20:57:23.202Z,1.90
2022-10-23T20:59:49.676Z,1.70
2022-10-23T21:02:16.366Z,2.33
2022-10-23T21:04:42.865Z,2.30
2022-10-23T21:07:11.078Z,2.10
2022-10-23T21:09:38.529Z,1.87
2022-10-23T21:12:06.422Z,2.10
2022-10-23T21:14:33.103Z,1.93
2022-10-23T21:16:59.543Z,3.10
2022-10-23T21:19:25.993Z,2.40
2022-10-23T21:21:52.558Z,2.40
2022-10-23T21:24:19.041Z,2.33
2022-10-23T21:26:45.670Z,2.53
2022-10-23T21:29:18.394Z,2.50
2022-10-23T21:31:46.073Z,2.70
2022-10-23T21:34:12.669Z,3.23
2022-10-23T21:36:48.482Z,2.70
2022-10-23T21:39:20.454Z,2.90
2022-10-23T21:41:47.353Z,2.90
2022-10-23T21:44:13.833Z,3.40
2022-10-23T21:46:41.646Z,2.73
2022-10-23T21:49:09.819Z,2.77
2022-10-23T21:51:37.372Z,2.83
2022-10-23T21:54:08.669Z,2.97
2022-10-23T21:56:42.061Z,3.10
2022-10-23T21:59:12.749Z,3.67
2022-10-23T22:01:44.132Z,2.77
2022-10-23T22:04:11.844Z,3.03
2022-10-23T22:06:38.846Z,3.37
2022-10-23T22:09:06.174Z,3.07
2022-10-23T22:11:32.875Z,2.60
2022-10-23T22:13:59.607Z,3.50
2022-10-23T22:16:26.262Z,3.00
2022-10-23T22:18:53.390Z,2.83
2022-10-23T22:21:22.427Z,2.93
2022-10-23T22:23:49.628Z,2.63
2022-10-23T22:26:22.332Z,2.63
2022-10-23T22:28:49.928Z,3.03
2022-10-23T22:31:18.132Z,2.83
2022-10-23T22:33:44.717Z,3.40
2022-10-23T22:36:11.334Z,3.00
2022-10-23T22:38:38.217Z,3.30
2022-10-23T22:41:05.819Z,3.00
2022-10-23T22:43:32.426Z,3.90
2022-10-23T22:46:08.441Z,3.10
2022-10-23T22:48:35.643Z,2.93
2022-10-23T22:51:02.966Z,3.60
2022-10-23T22:53:29.515Z,2.83
2022-10-23T22:55:56.715Z,3.07
2022-10-23T22:58:24.104Z,2.97
2022-10-23T23:00:52.232Z,3.10
2022-10-23T23:03:18.826Z,3.97
2022-10-23T23:05:47.221Z,3.10
2022-10-23T23:08:14.591Z,2.90
2022-10-23T23:10:41.297Z,3.20
2022-10-23T23:13:07.751Z,3.97
2022-10-23T23:15:39.060Z,3.70
2022-10-23T23:18:05.865Z,3.23
2022-10-23T23:20:32.386Z,3.60
2022-10-23T23:23:09.703Z,3.40
2022-10-23T23:25:41.016Z,3.53
2022-10-23T23:28:07.597Z,4.07
2022-10-23T23:30:34.210Z,2.60
2022-10-23T23:33:00.674Z,3.50
2022-10-23T23:35:27.219Z,3.43
2022-10-23T23:37:53.689Z,3.80
2022-10-23T23:40:20.135Z,3.10
2022-10-23T23:42:47.120Z,3.20
2022-10-23T23:45:14.957Z,3.40
2022-10-23T23:47:42.336Z,2.53
2022-10-23T23:50:10.635Z,3.13
2022-10-23T23:52:37.219Z,2.80
2022-10-23T23:55:04.100Z,4.20
2022-10-23T23:57:30.657Z,2.93
2022-10-23T23:59:57.190Z,3.20
